Terminal Aerodrome Forecast
Issued by NWS

Home | Current Version | Previous Version | Text Only | Print | Product List | Glossary On
Versions: 1 2 3 4 5 6 7 8 9 10 11 12 13 14 15 16 17 18 19 20 21 22 23 24 25
000
FTUS46 KLOX 221742
TAFBUR
TAF
KBUR 221742Z 2218/2318 28004KT P6SM SCT013 BKN024
     FM221900 19010KT P6SM VCSH SCT024 OVC035
     FM230200 21008KT P6SM SCT015 OVC025
     FM230900 35005KT P6SM SCT100=

USA.gov is the U.S. government's official web portal to all federal, state and local government web resources and services.